Time;durP1;ratioP1;P1;durP2;ratioP2;P2;SDS_P1;SDS_P2;PMS_P1;PMS_P2;Temp;Humidity;BMP_temperature;BMP_pressure;BME280_temperature;BME280_humidity;BME280_pressure;Samples;Min_cycle;Max_cycle;Signal;HPM_P1;HPM_P2
2022/08/17 00:01:34;;;;;;;;;22.67;21.00;;;;;21.41;100.00;100105.19;5049937;28;45388;-83
2022/08/17 00:04:00;;;;;;;;;21.00;21.00;;;;;21.46;100.00;100096.91;5032147;28;46903;-84
2022/08/17 00:06:28;;;;;;;;;19.00;19.00;;;;;21.50;100.00;100093.13;5049787;28;45345;-84
2022/08/17 00:09:00;;;;;;;;;20.00;20.00;;;;;21.43;100.00;100087.13;5049995;28;45410;-84
2022/08/17 00:11:28;;;;;;;;;20.00;20.00;;;;;21.48;100.00;100095.03;5054098;28;44956;-83
2022/08/17 00:14:06;;;;;;;;;19.33;18.33;;;;;21.46;100.00;100080.69;5052421;28;47288;-84
2022/08/17 00:16:35;;;;;;;;;18.33;18.33;;;;;21.49;100.00;100076.03;5069701;27;45719;-84
2022/08/17 00:19:05;;;;;;;;;20.67;19.67;;;;;21.50;100.00;100082.31;5053039;28;45777;-83
2022/08/17 00:21:34;;;;;;;;;17.33;17.00;;;;;21.47;100.00;100082.44;5052418;28;45419;-83
2022/08/17 00:23:59;;;;;;;;;21.33;21.33;;;;;21.46;100.00;100081.56;5070574;28;45464;-83
2022/08/17 00:26:26;;;;;;;;;17.67;17.33;;;;;21.42;100.00;100073.59;5052724;28;45414;-83
2022/08/17 00:28:51;;;;;;;;;18.00;18.00;;;;;21.43;100.00;100076.28;5071590;28;45748;-83
2022/08/17 00:31:17;;;;;;;;;22.00;22.00;;;;;21.43;100.00;100075.38;5070566;28;44917;-83
2022/08/17 00:33:44;;;;;;;;;19.00;19.00;;;;;21.39;100.00;100058.41;5071076;28;45365;-84
2022/08/17 00:36:11;;;;;;;;;23.33;18.67;;;;;21.37;100.00;100069.28;5070825;28;44744;-84
2022/08/17 00:41:59;;;;;;;;;19.33;19.33;;;;;21.35;100.00;100056.75;5070609;28;45345;-84
2022/08/17 00:44:25;;;;;;;;;22.33;21.67;;;;;21.31;100.00;100061.41;5070094;28;45409;-84
2022/08/17 00:46:50;;;;;;;;;19.33;17.67;;;;;21.32;100.00;100052.34;5052681;28;45429;-84
2022/08/17 00:49:18;;;;;;;;;17.00;17.00;;;;;21.28;100.00;100053.41;5070584;28;45455;-84
2022/08/17 00:51:53;;;;;;;;;21.00;19.67;;;;;21.30;100.00;100061.47;5052012;28;45494;-84
2022/08/17 00:57:45;;;;;;;;;21.33;20.33;;;;;21.24;100.00;100054.47;5070503;28;45403;-83
2022/08/17 01:00:17;;;;;;;;;25.67;23.00;;;;;21.25;100.00;100058.97;5070588;28;45491;-84
2022/08/17 01:02:45;;;;;;;;;26.67;23.67;;;;;21.25;100.00;100060.75;5051939;28;45419;-84
2022/08/17 01:05:16;;;;;;;;;22.00;21.00;;;;;21.24;100.00;100062.59;5051808;28;46552;-84
2022/08/17 01:07:43;;;;;;;;;24.67;23.67;;;;;21.27;100.00;100073.31;5068074;27;45418;-84
2022/08/17 01:10:12;;;;;;;;;20.33;20.33;;;;;21.27;100.00;100080.50;5035741;28;45364;-84
2022/08/17 01:12:37;;;;;;;;;18.67;17.67;;;;;21.29;100.00;100073.22;5069099;27;45263;-84
2022/08/17 01:15:04;;;;;;;;;20.33;20.33;;;;;21.27;100.00;100076.00;5069703;28;45845;-84
2022/08/17 01:17:30;;;;;;;;;20.00;20.00;;;;;21.21;100.00;100065.44;5083672;27;45538;-83
2022/08/17 01:19:56;;;;;;;;;25.00;23.67;;;;;21.26;100.00;100073.34;5073607;27;45497;-84
2022/08/17 01:22:23;;;;;;;;;17.00;17.00;;;;;21.24;100.00;100067.13;5072550;27;45482;-84
2022/08/17 01:24:55;;;;;;;;;23.00;20.33;;;;;21.20;100.00;100052.84;5062887;27;47043;-84
2022/08/17 01:27:23;;;;;;;;;21.00;19.00;;;;;21.17;100.00;100059.25;5088102;28;45396;-84
2022/08/17 01:29:57;;;;;;;;;22.00;18.00;;;;;21.14;100.00;100069.31;5071073;27;45406;-84
2022/08/17 01:32:22;;;;;;;;;17.67;17.33;;;;;21.11;100.00;100058.66;5084818;27;45582;-83
2022/08/17 01:34:49;;;;;;;;;19.33;19.33;;;;;21.09;100.00;100055.13;5050640;28;46835;-84
2022/08/17 01:37:15;;;;;;;;;22.33;22.33;;;;;21.04;100.00;100060.69;5051966;28;45462;-84
2022/08/17 01:39:55;;;;;;;;;21.33;20.00;;;;;21.05;100.00;100056.19;5051795;28;45854;-84
2022/08/17 01:42:35;;;;;;;;;21.33;19.67;;;;;21.00;100.00;100055.47;5071142;28;45452;-84
2022/08/17 01:45:23;;;;;;;;;19.00;16.33;;;;;20.95;100.00;100061.94;5070107;28;45602;-83
2022/08/17 01:47:50;;;;;;;;;19.00;19.00;;;;;20.94;100.00;100068.28;5050584;28;45387;-83
2022/08/17 01:50:20;;;;;;;;;20.00;19.33;;;;;20.87;100.00;100061.38;5050570;28;45426;-83
2022/08/17 01:52:49;;;;;;;;;20.67;18.67;;;;;20.90;100.00;100077.44;5068086;28;44923;-84
2022/08/17 01:55:20;;;;;;;;;22.67;21.33;;;;;20.88;100.00;100083.88;5068387;28;46161;-84
2022/08/17 01:57:46;;;;;;;;;17.67;16.67;;;;;20.83;100.00;100075.94;5069312;28;45335;-84
2022/08/17 02:00:13;;;;;;;;;18.67;18.67;;;;;20.84;100.00;100082.22;5050581;28;45765;-84
2022/08/17 02:02:39;;;;;;;;;22.33;19.00;;;;;20.83;100.00;100092.16;5068243;28;45400;-84
2022/08/17 02:05:06;;;;;;;;;21.50;20.50;;;;;20.83;100.00;100075.94;5050265;28;45901;-84
2022/08/17 02:07:31;;;;;;;;;26.00;22.00;;;;;20.79;100.00;100077.00;5067601;27;44868;-84
2022/08/17 02:09:57;;;;;;;;;23.67;20.00;;;;;20.78;100.00;100080.63;5052373;28;45538;-84
2022/08/17 02:12:23;;;;;;;;;19.67;18.33;;;;;20.81;100.00;100087.78;5069135;28;44886;-84
2022/08/17 02:14:49;;;;;;;;;23.33;21.00;;;;;20.77;100.00;100087.00;5049961;28;46915;-84
2022/08/17 02:17:15;;;;;;;;;19.33;18.67;;;;;20.76;100.00;100079.81;5049504;28;45350;-84
2022/08/17 02:19:41;;;;;;;;;20.67;20.00;;;;;20.73;100.00;100080.81;5050091;28;45382;-83
2022/08/17 02:22:07;;;;;;;;;18.00;17.00;;;;;20.70;100.00;100080.97;5051059;28;45439;-83
2022/08/17 02:24:36;;;;;;;;;20.00;20.00;;;;;20.70;100.00;100080.06;5067556;28;45401;-83
2022/08/17 02:27:04;;;;;;;;;20.00;19.00;;;;;20.70;100.00;100091.78;5050053;28;45467;-83
2022/08/17 02:29:32;;;;;;;;;20.33;19.33;;;;;20.69;100.00;100097.22;5068096;28;45394;-83
2022/08/17 02:31:58;;;;;;;;;19.00;18.67;;;;;20.66;100.00;100094.63;5068691;28;45776;-83
2022/08/17 02:34:25;;;;;;;;;19.33;18.33;;;;;20.63;100.00;100097.47;5067982;28;46131;-84
2022/08/17 02:36:52;;;;;;;;;24.67;23.33;;;;;20.64;100.00;100102.78;5050259;28;45510;-83
2022/08/17 02:40:05;;;;;;;;;25.33;23.00;;;;;20.63;100.00;100100.16;5050096;28;45593;-84
2022/08/17 02:42:37;;;;;;;;;22.33;21.00;;;;;20.62;100.00;100103.78;5067201;27;45416;-84
2022/08/17 02:45:12;;;;;;;;;26.00;22.00;;;;;20.60;100.00;100105.66;5068361;28;45045;-84
2022/08/17 02:47:38;;;;;;;;;27.33;26.67;;;;;20.51;100.00;100087.94;5067352;27;45355;-84
2022/08/17 02:50:07;;;;;;;;;24.00;21.00;;;;;20.56;100.00;100100.34;5067139;28;44761;-83
2022/08/17 02:52:38;;;;;;;;;20.00;19.00;;;;;20.56;100.00;100105.75;5049803;28;45561;-83
2022/08/17 02:55:11;;;;;;;;;24.00;21.33;;;;;20.58;100.00;100111.09;5050313;28;47323;-83
2022/08/17 02:57:37;;;;;;;;;24.67;23.67;;;;;20.58;100.00;100114.72;5068456;28;45507;-83
2022/08/17 03:00:08;;;;;;;;;21.00;20.00;;;;;20.63;100.00;100113.66;5052161;28;45449;-84
2022/08/17 03:02:39;;;;;;;;;18.67;18.67;;;;;20.67;100.00;100108.09;5068324;27;45436;-84
2022/08/17 03:05:08;;;;;;;;;20.00;19.67;;;;;20.68;100.00;100101.75;5069138;28;45444;-83
2022/08/17 03:07:34;;;;;;;;;21.00;20.67;;;;;20.75;100.00;100088.88;5051361;28;45435;-84
2022/08/17 03:10:00;;;;;;;;;26.00;22.00;;;;;20.79;100.00;100090.53;5068828;27;45449;-84
2022/08/17 03:12:31;;;;;;;;;23.67;22.00;;;;;20.82;100.00;100073.28;5070722;28;45406;-84
2022/08/17 03:14:57;;;;;;;;;19.00;18.67;;;;;20.81;100.00;100076.97;5052404;28;45783;-83
2022/08/17 03:17:22;;;;;;;;;19.67;18.00;;;;;20.81;100.00;100076.97;5052577;28;45420;-84
2022/08/17 03:19:47;;;;;;;;;18.67;18.67;;;;;20.77;100.00;100071.66;5059044;28;45942;-84
2022/08/17 03:22:13;;;;;;;;;18.33;18.33;;;;;20.76;100.00;100069.00;5072694;27;45483;-84
2022/08/17 03:24:38;;;;;;;;;20.33;19.00;;;;;20.77;100.00;100077.06;5072554;27;47059;-84
2022/08/17 03:27:04;;;;;;;;;19.33;19.00;;;;;20.80;100.00;100076.06;5091831;27;45428;-83
2022/08/17 03:29:29;;;;;;;;;21.33;20.67;;;;;20.79;100.00;100063.50;5088827;27;46306;-83
2022/08/17 03:31:54;;;;;;;;;24.00;23.00;;;;;20.80;100.00;100059.84;5090678;27;45341;-84
2022/08/17 03:34:20;;;;;;;;;21.00;19.00;;;;;20.89;100.00;100058.63;5090076;27;45728;-84
2022/08/17 03:36:45;;;;;;;;;18.33;18.00;;;;;20.93;100.00;100066.53;5090501;27;45468;-84
2022/08/17 03:39:11;;;;;;;;;20.00;18.00;;;;;20.95;100.00;100053.84;5073399;27;45366;-83
2022/08/17 03:41:37;;;;;;;;;19.33;19.33;;;;;21.04;100.00;100059.81;5072985;27;45419;-84
2022/08/17 03:44:04;;;;;;;;;23.33;18.33;;;;;21.07;100.00;100063.28;5055158;27;48148;-83
2022/08/17 03:57:28;;;;;;;;;23.33;23.00;;;;;21.04;100.00;100067.94;5089724;27;45418;-84
2022/08/17 03:59:54;;;;;;;;;26.33;25.33;;;;;21.02;100.00;100073.38;5089945;27;45472;-84
2022/08/17 04:02:24;;;;;;;;;20.00;18.00;;;;;20.97;100.00;100076.28;5090903;27;44860;-84
2022/08/17 04:04:50;;;;;;;;;19.33;19.33;;;;;20.96;100.00;100082.63;5090401;28;45284;-84
2022/08/17 04:07:24;;;;;;;;;23.67;23.00;;;;;20.96;100.00;100077.22;5090714;27;45550;-84
2022/08/17 04:09:50;;;;;;;;;20.00;18.00;;;;;20.97;100.00;100083.53;5071846;27;45432;-84
2022/08/17 04:12:18;;;;;;;;;19.67;19.67;;;;;20.96;100.00;100090.72;5089330;27;45408;-84
2022/08/17 04:14:51;;;;;;;;;21.33;19.67;;;;;20.93;100.00;100087.28;5088016;27;47112;-83
2022/08/17 04:17:16;;;;;;;;;23.67;22.33;;;;;20.91;100.00;100086.47;5088337;28;45646;-83
2022/08/17 04:19:42;;;;;;;;;26.33;25.33;;;;;20.83;100.00;100086.75;5069292;28;45374;-84
2022/08/17 04:22:07;;;;;;;;;22.33;22.33;;;;;20.83;100.00;100092.16;5069929;27;45429;-84
2022/08/17 04:24:33;;;;;;;;;19.33;19.33;;;;;20.83;100.00;100096.69;5071232;27;46566;-84
2022/08/17 04:27:00;;;;;;;;;22.00;22.00;;;;;20.82;100.00;100095.78;5090344;27;45295;-84
2022/08/17 04:29:26;;;;;;;;;21.33;21.33;;;;;20.80;100.00;100088.69;5072257;27;45748;-84
2022/08/17 04:31:55;;;;;;;;;20.67;20.67;;;;;20.80;100.00;100089.56;5089833;27;45974;-84
2022/08/17 04:34:21;;;;;;;;;26.00;23.00;;;;;20.77;100.00;100087.00;5089225;27;45334;-84
2022/08/17 04:36:48;;;;;;;;;22.00;21.67;;;;;20.75;100.00;100094.28;5071579;27;45441;-84
2022/08/17 04:39:13;;;;;;;;;19.00;19.00;;;;;20.71;100.00;100081.84;5089176;27;45417;-83
2022/08/17 04:44:23;;;;;;;;;22.00;18.33;;;;;20.72;100.00;100088.97;5089808;27;45398;-84
2022/08/17 04:46:48;;;;;;;;;23.00;22.33;;;;;20.67;100.00;100078.34;5071482;27;45862;-84
2022/08/17 04:49:14;;;;;;;;;18.67;18.67;;;;;20.72;100.00;100084.47;5071502;28;45544;-84
2022/08/17 04:51:43;;;;;;;;;23.67;23.67;;;;;20.73;100.00;100086.22;5071031;27;45571;-84
2022/08/17 04:54:15;;;;;;;;;22.33;20.00;;;;;20.74;100.00;100088.00;5088794;27;45999;-84
2022/08/17 04:56:41;;;;;;;;;24.00;24.00;;;;;20.70;100.00;100075.56;5070731;27;46040;-84
2022/08/17 04:59:15;;;;;;;;;21.00;19.00;;;;;20.75;100.00;100080.78;5071722;27;45458;-84
2022/08/17 05:01:44;;;;;;;;;26.00;23.00;;;;;20.81;100.00;100083.25;5072151;27;45520;-84
2022/08/17 05:04:46;;;;;;;;;21.33;21.33;;;;;20.87;100.00;100087.53;5090025;27;46433;-84
2022/08/17 05:07:11;;;;;;;;;17.33;17.33;;;;;20.88;100.00;100078.47;5092059;27;45763;-84
2022/08/17 05:09:37;;;;;;;;;21.00;20.33;;;;;20.88;100.00;100063.13;5089936;27;45532;-84
2022/08/17 05:12:02;;;;;;;;;22.33;21.33;;;;;20.92;100.00;100075.56;5089745;27;45467;-84
2022/08/17 05:14:31;;;;;;;;;23.00;21.33;;;;;20.95;100.00;100066.47;5088567;27;45388;-84
2022/08/17 05:17:31;;;;;;;;;20.00;19.00;;;;;21.04;100.00;100073.34;5070656;27;45748;-84
2022/08/17 05:19:56;;;;;;;;;24.00;23.67;;;;;21.11;100.00;100080.28;5070374;27;45496;-84
2022/08/17 05:22:21;;;;;;;;;28.33;23.33;;;;;21.17;100.00;100077.31;5071595;27;45317;-84
2022/08/17 05:24:48;;;;;;;;;28.00;27.00;;;;;21.16;100.00;100070.13;5070630;27;47251;-84
2022/08/17 05:27:13;;;;;;;;;23.33;20.67;;;;;21.15;100.00;100071.97;5079562;27;45480;-85
2022/08/17 05:29:39;;;;;;;;;24.33;22.33;;;;;21.12;100.00;100071.19;5051891;27;45469;-84
2022/08/17 05:32:12;;;;;;;;;30.00;28.00;;;;;21.15;100.00;100080.09;5071230;27;45493;-84
2022/08/17 05:34:38;;;;;;;;;25.67;24.67;;;;;21.15;100.00;100082.78;5070371;27;45498;-84
2022/08/17 05:37:03;;;;;;;;;24.00;24.00;;;;;21.19;100.00;100078.16;5051221;28;45398;-84
2022/08/17 05:39:29;;;;;;;;;22.00;22.00;;;;;21.16;100.00;100072.84;5051435;28;45536;-84
2022/08/17 05:41:54;;;;;;;;;23.33;21.00;;;;;21.19;100.00;100080.84;5051928;28;45465;-84
2022/08/17 05:44:20;;;;;;;;;25.00;24.67;;;;;21.25;100.00;100091.41;5050805;28;46038;-84
2022/08/17 05:46:53;;;;;;;;;26.67;23.00;;;;;21.30;100.00;100092.09;5051197;28;45375;-84
2022/08/17 05:49:27;;;;;;;;;28.00;26.33;;;;;21.41;100.00;100088.06;5070125;27;45469;-84
2022/08/17 05:52:12;;;;;;;;;26.67;25.00;;;;;21.49;100.00;100070.63;5053228;28;45529;-84
2022/08/17 05:54:58;;;;;;;;;22.00;21.33;;;;;21.44;100.00;100055.53;5069964;27;45234;-86
2022/08/17 06:01:12;;;;;;;;;24.00;21.67;;;;;21.57;100.00;100043.22;5070236;27;45359;-86
2022/08/17 06:03:47;;;;;;;;;23.67;23.67;;;;;21.77;100.00;100056.81;5045169;28;45433;-86
2022/08/17 06:06:34;;;;;;;;;24.67;24.00;;;;;21.98;100.00;100057.69;5053147;28;47071;-85
2022/08/17 06:09:18;;;;;;;;;24.67;24.00;;;;;22.16;100.00;100047.00;5052544;28;45468;-84
2022/08/17 06:11:50;;;;;;;;;21.67;21.33;;;;;22.31;100.00;100048.16;5054236;28;45189;-85
2022/08/17 06:14:25;;;;;;;;;20.00;19.00;;;;;22.44;100.00;100057.47;5072527;28;45592;-85
2022/08/17 06:16:59;;;;;;;;;25.67;24.33;;;;;22.63;100.00;100067.47;5072233;27;47099;-84
2022/08/17 06:19:32;;;;;;;;;25.33;24.67;;;;;22.76;100.00;100057.78;5056343;28;44818;-85
2022/08/17 06:22:01;;;;;;;;;26.00;26.00;;;;;22.91;100.00;100070.63;5071417;27;44946;-85
2022/08/17 06:24:50;;;;;;;;;28.33;27.00;;;;;22.99;100.00;100083.81;5090021;28;45243;-85
2022/08/17 06:27:25;;;;;;;;;25.67;25.67;;;;;22.97;100.00;100078.47;5088864;28;45524;-85
2022/08/17 06:30:00;;;;;;;;;28.67;25.67;;;;;23.02;100.00;100096.38;5070851;27;44796;-85
2022/08/17 06:32:30;;;;;;;;;21.50;20.00;;;;;23.03;100.00;100090.03;5074077;27;44980;-84
2022/08/17 06:34:59;;;;;;;;;24.33;24.00;;;;;22.99;100.00;100099.22;5094247;28;45385;-84
2022/08/17 06:37:38;;;;;;;;;25.33;25.33;;;;;22.93;100.00;100106.69;5076219;27;45275;-83
2022/08/17 06:40:06;;;;;;;;;30.67;26.67;;;;;22.77;100.00;100105.66;5075915;27;45468;-84
2022/08/17 06:42:46;;;;;;;;;25.00;22.67;;;;;22.75;100.00;100118.41;5094999;27;45440;-83
2022/08/17 06:45:37;;;;;;;;;27.33;24.67;;;;;22.64;100.00;100118.88;5093932;27;45424;-84
2022/08/17 06:48:23;;;;;;;;;24.33;24.33;;;;;22.56;100.00;100119.25;5076354;27;47811;-84
2022/08/17 06:50:59;;;;;;;;;24.33;22.00;;;;;22.46;100.00;100112.47;5075399;27;45310;-84
2022/08/17 06:54:09;;;;;;;;;27.00;25.00;;;;;22.45;100.00;100120.69;5076211;27;44682;-84
2022/08/17 06:57:09;;;;;;;;;25.67;25.67;;;;;22.40;100.00;100122.69;5029686;28;44788;-84
2022/08/17 07:00:09;;;;;;;;;25.00;25.00;;;;;22.35;100.00;100133.75;5031531;28;48176;-84
2022/08/17 07:03:36;;;;;;;;;25.33;24.33;;;;;22.39;100.00;100132.66;4991328;28;45458;-85
2022/08/17 07:06:17;;;;;;;;;23.33;22.33;;;;;22.45;100.00;100126.97;4914405;28;45386;-85
2022/08/17 07:09:10;;;;;;;;;;;;;;;;;;;;;
2022/08/17 07:11:49;;;;;;;;;28.67;25.33;;;;;22.42;100.00;100126.22;4920255;28;74985;-86
2022/08/17 07:14:44;;;;;;;;;30.00;28.67;;;;;22.59;100.00;100144.44;4898313;29;45585;-85
2022/08/17 07:17:28;;;;;;;;;;;;;;;;;;;;;
2022/08/17 07:20:14;;;;;;;;;24.67;24.67;;;;;22.65;100.00;100155.00;4884369;29;45039;-85
2022/08/17 07:23:12;;;;;;;;;27.67;27.00;;;;;22.66;100.00;100164.88;4890614;29;45592;-83
2022/08/17 07:25:40;;;;;;;;;31.33;29.67;;;;;22.60;100.00;100171.44;4888491;29;45605;-84
2022/08/17 07:28:06;;;;;;;;;20.33;18.33;;;;;22.45;100.00;100162.19;4886636;29;45780;-84
2022/08/17 07:30:52;;;;;;;;;31.67;28.00;;;;;22.46;100.00;100168.47;4880182;29;45026;-85
2022/08/17 07:33:40;;;;;;;;;23.67;23.67;;;;;22.41;100.00;100160.56;4911867;28;46282;-83
2022/08/17 07:36:25;;;;;;;;;26.67;25.00;;;;;22.49;100.00;100196.34;4934417;28;44904;-84
2022/08/17 07:38:56;;;;;;;;;27.00;26.00;;;;;22.33;100.00;100170.88;5004500;28;45421;-85
2022/08/17 07:41:23;;;;;;;;;22.33;22.33;;;;;22.55;100.00;100203.31;5052844;28;44943;-83
2022/08/17 07:43:51;;;;;;;;;24.00;24.00;;;;;22.38;100.00;100176.97;5073415;27;46126;-85
2022/08/17 07:49:51;;;;;;;;;27.00;25.33;;;;;22.50;100.00;100198.09;5061039;27;45346;-85
2022/08/17 07:52:39;;;;;;;;;25.00;23.33;;;;;22.50;100.00;100203.53;5061464;27;44745;-85
2022/08/17 07:55:28;;;;;;;;;23.67;23.33;;;;;22.50;100.00;100199.91;5018738;28;45450;-83
2022/08/17 07:57:57;;;;;;;;;27.00;25.67;;;;;22.46;100.00;100199.19;5052221;28;45528;-84
2022/08/17 08:01:00;;;;;;;;;27.67;26.67;;;;;22.42;100.00;100208.41;5050092;28;44831;-84
2022/08/17 08:03:46;;;;;;;;;27.67;24.67;;;;;22.34;100.00;100200.59;5047762;28;44917;-83
2022/08/17 08:06:53;;;;;;;;;28.67;24.67;;;;;22.41;100.00;100220.19;5048713;28;45342;-83
2022/08/17 08:09:44;;;;;;;;;23.00;22.33;;;;;22.43;100.00;100220.13;5014666;28;45392;-85
2022/08/17 08:12:33;;;;;;;;;28.33;25.67;;;;;22.48;100.00;100223.50;5033908;28;45242;-84
2022/08/17 08:15:12;;;;;;;;;25.00;24.00;;;;;22.40;100.00;100221.13;5036266;28;45193;-84
2022/08/17 08:18:25;;;;;;;;;30.33;28.00;;;;;22.41;100.00;100239.16;5048512;28;46196;-85
2022/08/17 08:21:00;;;;;;;;;22.00;22.00;;;;;22.43;100.00;100248.09;5042103;28;45830;-85
2022/08/17 08:23:52;;;;;;;;;25.00;24.00;;;;;22.53;100.00;100248.56;5046244;28;45520;-86
2022/08/17 08:26:41;;;;;;;;;24.00;24.00;;;;;22.60;100.00;100254.59;5014357;28;44875;-85
2022/08/17 08:29:34;;;;;;;;;26.00;23.00;;;;;22.60;100.00;100246.47;5012067;28;46779;-85
2022/08/17 08:32:26;;;;;;;;;22.67;22.00;;;;;22.65;100.00;100252.59;5033536;28;44816;-84
2022/08/17 08:35:16;;;;;;;;;29.00;24.67;;;;;22.74;100.00;100250.34;5024180;28;45308;-86
2022/08/17 08:38:07;;;;;;;;;22.67;22.67;;;;;22.81;100.00;100250.97;5029160;28;45002;-86
2022/08/17 08:44:23;;;;;;;;;23.67;22.67;;;;;23.00;100.00;100244.69;5033515;28;44884;-85
2022/08/17 08:47:00;;;;;;;;;20.00;20.00;;;;;22.99;100.00;100245.66;5055878;28;45557;-83
2022/08/17 08:49:50;;;;;;;;;23.00;20.67;;;;;23.04;100.00;100254.50;5103146;27;45395;-88
2022/08/17 08:52:53;;;;;;;;;22.67;20.67;;;;;23.06;100.00;100260.72;5093486;27;45440;-85
2022/08/17 08:56:02;;;;;;;;;28.33;25.00;;;;;23.07;100.00;100252.53;5068424;27;45319;-84
2022/08/17 08:58:39;;;;;;;;;22.33;22.00;;;;;23.13;100.00;100248.66;5092929;27;44786;-85
2022/08/17 09:01:56;;;;;;;;;22.00;20.00;;;;;23.21;100.00;100251.91;5075661;28;45394;-86
2022/08/17 09:05:02;;;;;;;;;26.67;24.33;;;;;23.24;100.00;100262.59;5088483;27;45536;-85
2022/08/17 09:07:39;;;;;;;;;20.67;20.67;;;;;23.24;100.00;100246.31;5071972;27;44762;-85
2022/08/17 09:10:30;;;;;;;;;24.33;24.33;;;;;23.36;100.00;100253.88;5073127;28;44856;-85
2022/08/17 09:13:26;;;;;;;;;26.00;24.67;;;;;23.34;100.00;100253.06;5077591;27;44903;-83
2022/08/17 09:16:56;;;;;;;;;25.67;23.33;;;;;23.27;100.00;100254.31;5091866;27;45442;-82
2022/08/17 09:20:04;;;;;;;;;23.33;22.00;;;;;23.20;100.00;100255.56;4970835;28;45689;-84
2022/08/17 09:22:46;;;;;;;;;25.67;25.33;;;;;23.06;100.00;100244.47;4956444;28;45421;-84
2022/08/17 09:25:25;;;;;;;;;21.00;21.00;;;;;23.03;100.00;100252.75;4953518;28;45475;-84
2022/08/17 09:28:06;;;;;;;;;26.00;26.00;;;;;22.96;100.00;100252.97;4969335;28;46243;-84
2022/08/17 09:30:49;;;;;;;;;25.00;23.33;;;;;22.94;100.00;100251.28;4954191;28;44876;-86
2022/08/17 09:33:25;;;;;;;;;27.33;25.67;;;;;22.97;100.00;100259.28;4956949;28;45373;-84
2022/08/17 09:39:50;;;;;;;;;25.00;23.00;;;;;22.97;100.00;100251.16;4930305;28;45037;-86
2022/08/17 09:43:11;;;;;;;;;23.33;23.33;;;;;22.94;100.00;100249.44;4908569;28;44950;-85
2022/08/17 09:46:05;;;;;;;;;26.33;23.33;;;;;22.80;100.00;100224.78;4893580;29;45360;-85
2022/08/17 09:49:00;;;;;;;;;23.67;22.67;;;;;22.94;100.00;100259.41;4908613;28;45580;-85
2022/08/17 09:52:07;;;;;;;;;23.00;23.00;;;;;22.90;100.00;100258.66;4891844;28;44989;-83
2022/08/17 09:54:36;;;;;;;;;28.33;25.33;;;;;22.88;100.00;100249.72;4912806;28;45437;-84
2022/08/17 09:57:41;;;;;;;;;23.00;23.00;;;;;22.89;100.00;100237.06;4929431;28;45438;-85
2022/08/17 10:00:23;;;;;;;;;26.00;24.67;;;;;22.96;100.00;100249.38;4915113;28;45475;-85
2022/08/17 10:03:15;;;;;;;;;26.00;25.33;;;;;23.01;100.00;100262.75;4930686;28;45445;-85
2022/08/17 10:06:16;;;;;;;;;30.67;30.00;;;;;23.01;100.00;100276.31;4929793;28;45410;-83
2022/08/17 10:09:22;;;;;;;;;25.67;25.67;;;;;22.95;100.00;100285.59;4930471;28;45540;-84
2022/08/17 10:12:18;;;;;;;;;24.33;22.00;;;;;22.71;100.00;100246.91;4912494;28;45587;-83
2022/08/17 10:14:59;;;;;;;;;28.00;25.00;;;;;22.82;100.00;100285.25;4936535;28;46185;-82
2022/08/17 10:18:02;;;;;;;;;29.00;25.33;;;;;22.86;100.00;100289.56;4963196;28;45527;-82
2022/08/17 10:26:52;;;;;;;;;26.33;23.67;;;;;22.79;100.00;100288.09;5059414;28;45418;-82
2022/08/17 10:29:26;;;;;;;;;29.00;26.67;;;;;22.79;100.00;100287.22;5049949;28;45438;-82
2022/08/17 10:32:00;;;;;;;;;27.33;26.00;;;;;22.77;100.00;100295.41;5050188;28;45294;-84
2022/08/17 10:34:50;;;;;;;;;29.33;25.33;;;;;22.76;100.00;100288.22;5050605;28;45419;-83
2022/08/17 10:37:18;;;;;;;;;26.33;25.33;;;;;22.81;100.00;100290.75;5052148;28;47997;-83
2022/08/17 10:40:06;;;;;;;;;27.33;23.33;;;;;22.90;100.00;100291.19;5069378;28;45427;-83
2022/08/17 10:42:50;;;;;;;;;26.00;26.00;;;;;23.02;100.00;100288.94;5051687;28;45855;-81
2022/08/17 10:45:43;;;;;;;;;24.67;23.00;;;;;23.20;100.00;100289.94;5070874;28;44783;-83
2022/08/17 10:48:11;;;;;;;;;28.00;28.00;;;;;23.36;100.00;100281.03;5002863;28;45504;-81
2022/08/17 10:51:08;;;;;;;;;25.67;23.67;;;;;23.48;100.00;100278.69;5006663;28;45474;-83
2022/08/17 10:53:34;;;;;;;;;28.33;28.00;;;;;23.46;100.00;100270.63;5007561;28;45386;-82
2022/08/17 10:56:16;;;;;;;;;30.67;28.00;;;;;23.46;100.00;100277.88;5007553;28;45329;-84
2022/08/17 10:59:08;;;;;;;;;26.67;26.33;;;;;23.52;100.00;100293.88;5009642;28;47169;-82
2022/08/17 11:04:46;;;;;;;;;29.00;29.00;;;;;23.44;100.00;100293.38;5014380;28;45684;-83
2022/08/17 11:07:33;;;;;;;;;32.33;29.67;;;;;23.40;100.00;100289.91;5054061;28;45561;-83
2022/08/17 11:10:35;;;;;;;;;30.33;29.33;;;;;23.34;100.00;100291.06;5050379;28;45402;-84
2022/08/17 11:13:13;;;;;;;;;30.67;29.00;;;;;23.28;100.00;100276.91;5039573;28;46346;-84
2022/08/17 11:16:21;;;;;;;;;31.33;29.33;;;;;23.28;100.00;100280.50;5073636;27;45291;-82
2022/08/17 11:19:24;;;;;;;;;29.67;29.67;;;;;23.31;100.00;100280.38;5047845;28;45413;-84
2022/08/17 11:22:25;;;;;;;;;34.33;32.33;;;;;23.33;100.00;100270.31;5080989;28;45437;-82
2022/08/17 11:24:53;;;;;;;;;36.67;31.00;;;;;23.48;100.00;100254.28;5061494;28;44858;-82
2022/08/17 11:27:29;;;;;;;;;29.67;29.67;;;;;23.90;100.00;100262.22;5094071;28;45710;-83
2022/08/17 11:30:13;;;;;;;;;29.00;28.33;;;;;24.32;100.00;100274.63;5069928;28;45549;-82
2022/08/17 11:32:50;;;;;;;;;35.00;30.67;;;;;24.46;99.65;100276.66;5052599;28;45474;-82
2022/08/17 11:35:29;;;;;;;;;30.67;29.67;;;;;24.63;99.89;100272.22;5080581;28;45345;-82
2022/08/17 11:38:03;;;;;;;;;31.00;30.00;;;;;24.89;99.46;100274.44;5068111;28;45288;-83
2022/08/17 11:40:45;;;;;;;;;28.00;28.00;;;;;25.05;96.44;100279.06;5073722;28;45022;-82
2022/08/17 11:43:28;;;;;;;;;31.67;30.00;;;;;25.29;97.65;100280.50;5075339;28;45557;-81
2022/08/17 11:45:54;;;;;;;;;28.33;28.33;;;;;25.82;92.66;100285.78;5064036;28;45465;-83
2022/08/17 11:52:03;;;;;;;;;27.33;27.33;;;;;26.12;93.65;100289.50;5092145;27;45430;-82
2022/08/17 11:54:29;;;;;;;;;35.33;31.67;;;;;26.27;89.96;100282.25;4992647;28;47496;-82
2022/08/17 11:57:05;;;;;;;;;31.67;29.67;;;;;26.22;91.38;100275.31;5008274;28;45455;-83
2022/08/17 11:59:31;;;;;;;;;31.33;30.67;;;;;26.19;90.84;100278.22;4993100;28;45387;-82
2022/08/17 12:02:02;;;;;;;;;32.67;30.00;;;;;25.93;91.70;100269.72;4982096;28;45513;-83
2022/08/17 12:04:33;;;;;;;;;32.00;30.33;;;;;25.79;90.48;100285.94;5000943;28;47261;-83
2022/08/17 12:10:30;;;;;;;;;26.67;26.33;;;;;25.41;93.29;100298.00;5011299;28;45566;-83
2022/08/17 12:12:58;;;;;;;;;27.33;26.67;;;;;25.47;93.89;100294.03;5007788;28;45005;-81
2022/08/17 12:15:30;;;;;;;;;26.00;25.33;;;;;25.56;92.58;100301.72;4971774;28;46985;-81
2022/08/17 12:17:58;;;;;;;;;30.33;28.67;;;;;25.68;92.13;100300.16;4988302;28;45393;-83
2022/08/17 12:20:28;;;;;;;;;28.67;27.33;;;;;25.91;91.75;100291.59;4990250;28;44813;-83
2022/08/17 12:23:18;;;;;;;;;25.67;25.00;;;;;26.05;88.71;100296.25;4990204;28;45913;-83
2022/08/17 12:26:20;;;;;;;;;28.33;27.00;;;;;26.08;90.23;100295.22;4975748;28;46785;-82
2022/08/17 12:28:56;;;;;;;;;27.00;26.00;;;;;26.13;90.56;100296.69;5026689;28;45410;-84
2022/08/17 12:31:45;;;;;;;;;26.00;26.00;;;;;26.39;89.82;100297.00;5030296;28;45291;-82
2022/08/17 12:34:44;;;;;;;;;29.00;29.00;;;;;26.54;88.78;100308.84;5055518;28;45866;-82
2022/08/17 12:37:23;;;;;;;;;29.00;29.00;;;;;26.68;88.44;100302.63;4991550;28;47280;-82
2022/08/17 12:40:17;;;;;;;;;24.67;23.67;;;;;26.77;86.97;100291.16;4974290;28;45461;-83